Charlotte Douglas International Airport

KCLT · Carolina del Nord, Stati Uniti

2 ottobre 2022

Tempo Codice Tempo metereologico Temp. Vista Base nuvolosa Vento METAR/SPECI
19:52
V
16 °C 10 mi 4.800 ft 010° 010° 9 kt METAR KCLT 022352Z 01009KT 10SM BKN048 BKN060 16/12 A3004 RMK SLP168 T01610117 10206 20161 51015 $
18:52
V
17 °C 10 mi 3.900 ft 020° 020° 9 kt METAR KCLT 022252Z 02009KT 10SM OVC039 17/12 A3003 RMK SLP165 T01720117 $
17:52
V
17 °C 10 mi 3.700 ft 030° 030° 8 - 19 kt METAR KCLT 022152Z 03008G19KT 10SM OVC037 17/11 A3001 RMK SLP160 T01720111 $
16:52
V
18 °C 10 mi 3.400 ft 010° 010° 11 - 18 kt METAR KCLT 022052Z 01011G18KT 340V040 10SM BKN034 18/11 A2999 RMK SLP153 T01780111 53007 $
15:52
V
18 °C 10 mi 3.200 ft 010° 010° 10 kt METAR KCLT 021952Z 01010KT 10SM BKN032 18/11 A2998 RMK SLP148 T01830106 $
14:52
V
19 °C 10 mi 3.500 ft 340° 340° 13 kt METAR KCLT 021852Z 34013KT 10SM BKN035 BKN100 19/11 A2997 RMK SLP144 T01890106 $
13:52
V
19 °C 10 mi 3.800 ft 350° 350° 16 - 21 kt METAR KCLT 021752Z 35016G21KT 10SM BKN038 BKN100 19/10 A2997 RMK SLP146 T01890100 10206 20122 $
12:52
V
19 °C 10 mi 3.800 ft 010° 010° 14 kt METAR KCLT 021652Z 01014KT 10SM BKN038 BKN065 BKN100 19/10 A2998 RMK SLP147 T01940100 $
11:56
V
20 °C 10 mi 6.500 ft 360° 360° 12 kt METAR KCLT 021556Z 36012KT 10SM SCT035 BKN065 BKN120 20/11 A2997 RMK T02000106 $
10:52
V
19 °C 10 mi 6.000 ft 360° 360° 9 kt METAR KCLT 021452Z 36009KT 10SM FEW037 BKN060 BKN120 19/09 A2997 RMK SLP144 T01890094 51013 $
09:52
V
17 °C 10 mi - 340° 340° 8 kt METAR KCLT 021352Z 34008KT 10SM FEW045 SCT060 SCT100 17/11 A2996 RMK SLP140 T01720106 $
08:52
V
14 °C 10 mi 5.500 ft 340° 340° 4 kt METAR KCLT 021252Z 34004KT 10SM FEW045 BKN055 BKN070 14/11 A2995 RMK SLP137 T01390106 $
07:52
V
13 °C 10 mi 5.000 ft 340° 340° 5 kt METAR KCLT 021152Z 34005KT 10SM BKN050 BKN070 13/11 A2993 RMK SLP132 T01330106 10133 20100 53011 $
06:52
V
12 °C 10 mi 4.800 ft 330° 330° 3 kt METAR KCLT 021052Z 33003KT 10SM BKN048 12/11 A2991 RMK SLP125 T01220111 $
05:52
V
12 °C 10 mi - 320° 320° 3 kt METAR KCLT 020952Z 32003KT 10SM SCT050 12/11 A2990 RMK SLP122 T01220106 $
04:52
V
11 °C 10 mi - 300° 300° 3 kt METAR KCLT 020852Z 30003KT 10SM FEW035 11/11 A2990 RMK SLP120 T01110106 57004 $
03:52
V
11 °C 10 mi - 280° 280° 3 kt METAR KCLT 020752Z 28003KT 10SM FEW035 11/10 A2990 RMK SLP121 T01060100 $
02:52
V
11 °C 10 mi - 290° 290° 3 kt METAR KCLT 020652Z 29003KT 10SM FEW035 SCT065 11/10 A2991 RMK SLP123 T01110100 $
01:52
V
12 °C 10 mi - 280° 280° 3 kt METAR KCLT 020552Z 28003KT 10SM FEW035 SCT065 12/11 A2991 RMK SLP124 T01220106 10161 20117 58004 $
00:52
V
13 °C 10 mi - 350° 350° 3 kt METAR KCLT 020452Z 35003KT 10SM FEW035 SCT070 13/11 A2991 RMK SLP125 T01280111 401940122 $

1 ottobre 2022

Tempo Codice Tempo metereologico Temp. Vista Base nuvolosa Vento METAR/SPECI
23:52
V
13 °C 10 mi 7.500 ft 350° 350° 4 kt METAR KCLT 020352Z 35004KT 10SM SCT038 SCT055 BKN075 13/11 A2992 RMK SLP129 T01330111 $
22:52
V
15 °C 10 mi 5.500 ft 350° 350° 4 kt METAR KCLT 020252Z 35004KT 10SM SCT038 BKN055 BKN070 15/11 A2992 RMK SLP128 T01500111 51012 $
21:52
V
15 °C 10 mi 5.500 ft 340° 340° 4 kt METAR KCLT 020152Z 34004KT 10SM FEW041 BKN055 BKN070 15/11 A2991 RMK SLP126 T01500111 $
20:52
V
16 °C 10 mi 5.000 ft 330° 330° 3 kt METAR KCLT 020052Z 33003KT 10SM BKN050 BKN085 16/12 A2990 RMK SLP122 T01560122 $
19:52
V
16 °C 10 mi 5.000 ft 010° 010° 3 kt METAR KCLT 012352Z 01003KT 10SM BKN050 OVC090 16/11 A2989 RMK SLP116 T01610111 10194 20161 51014 $
18:52
V
17 °C 10 mi 5.500 ft 010° 010° 6 kt METAR KCLT 012252Z 01006KT 10SM SCT040 OVC055 17/11 A2987 RMK SLP112 T01720106 $
17:52
V
18 °C 10 mi 4.000 ft 350° 350° 3 kt METAR KCLT 012152Z 35003KT 10SM FEW030 BKN040 OVC055 18/12 A2986 RMK SLP107 T01780122 $
16:52
V
19 °C 10 mi 5.500 ft 330° 330° 6 kt METAR KCLT 012052Z 33006KT 10SM SCT040 OVC055 19/12 A2984 RMK SLP100 T01890117 $
15:52
V
19 °C 10 mi 5.000 ft 320° 320° 5 kt METAR KCLT 011952Z 32005KT 10SM SCT035 OVC050 19/11 A2983 RMK SLP097 T01890111 $
14:52
V
19 °C 10 mi 5.000 ft Var Var 5 kt METAR KCLT 011852Z VRB05KT 10SM FEW035 OVC050 19/11 A2983 RMK SLP095 T01890111
13:52
V
18 °C 10 mi 5.000 ft 340° 340° 5 kt METAR KCLT 011752Z 34005KT 10SM SCT040 OVC050 18/11 A2983 RMK SLP096 T01830111 10189 20139 50004
12:52
V
18 °C 10 mi 3.500 ft Var Var 5 kt METAR KCLT 011652Z VRB05KT 10SM BKN035 BKN060 OVC240 18/12 A2983 RMK SLP097 T01830117
12:19
V
19 °C 10 mi 7.000 ft 310° 310° 6 kt METAR KCLT 011619Z 31006KT 10SM SCT028 SCT035 BKN070 BKN250 19/12 A2982 RMK T01890117
11:52
M
18 °C 10 mi 2.800 ft 320° 320° 7 kt METAR KCLT 011552Z 32007KT 10SM BKN028 BKN042 OVC070 18/12 A2982 RMK SLP094 T01780122
10:52
V
17 °C 10 mi 3.300 ft 270° 270° 4 kt METAR KCLT 011452Z 27004KT 10SM FEW015 BKN033 BKN065 BKN250 17/13 A2981 RMK SLP092 T01670128 51022
09:52
M
16 °C 10 mi 2.300 ft 270° 270° 4 kt METAR KCLT 011352Z 27004KT 10SM FEW010 BKN023 OVC038 16/13 A2980 RMK SLP086 T01560128
08:52
M
14 °C 10 mi 1.800 ft 310° 310° 8 kt METAR KCLT 011252Z 31008KT 10SM BKN018 OVC027 14/12 A2978 RMK SLP081 T01440122
07:52
M
14 °C 10 mi 1.900 ft 300° 300° 6 kt METAR KCLT 011152Z 30006KT 10SM BKN019 OVC024 14/12 A2975 RMK SLP071 60010 70264 T01390122 10139 20128 53027
06:52
M
13 °C 10 mi 1.900 ft 290° 290° 5 kt METAR KCLT 011052Z 29005KT 10SM FEW014 OVC019 13/12 A2972 RMK DZE06 SLP061 P0000 T01330122
06:39
M
13 °C 10 mi 2.100 ft 290° 290° 6 kt METAR KCLT 011039Z 29006KT 10SM FEW014 OVC021 13/12 A2971 RMK DZE06 P0000 T01330122
06:06
M
13 °C 9 mi 1.000 ft 300° 300° 7 kt METAR KCLT 011006Z 30007KT 9SM BKN010 OVC017 13/12 A2970 RMK DZE06 P0000 T01330122
05:52
I
13 °C 6 mi 700 ft 290° 290° 7 kt METAR KCLT 010952Z 29007KT 6SM -DZ BR BKN007 OVC015 13/13 A2969 RMK RAB14E23DZB25 SLP052 P0001 T01330128
04:52
I
13 °C 3 mi 700 ft 310° 310° 9 kt METAR KCLT 010852Z 31009KT 3SM BR BKN007 BKN011 OVC016 13/13 A2967 RMK RAE51 SLP043 P0001 60009 T01330128 53005
03:52
I
13 °C 4 mi 500 ft 310° 310° 7 kt METAR KCLT 010752Z 31007KT 4SM -RA BR BKN005 OVC009 OVC014 13/12 A2965 RMK SLP038 P0003 T01330122
02:52
I
13 °C 3 mi 500 ft 320° 320° 9 kt METAR KCLT 010652Z 32009KT 3SM -RA BR BKN005 OVC014 13/12 A2965 RMK SLP037 P0005 T01330122
01:52
I
13 °C 4 mi 500 ft 320° 320° 10 kt METAR KCLT 010552Z 32010KT 4SM -RA BR BKN005 OVC014 13/12 A2965 RMK SLP037 P0005 60052 T01330122 10133 20128 51002
00:52
I
13 °C 3 mi 500 ft 320° 320° 9 - 17 kt METAR KCLT 010452Z 32009G17KT 3SM -RA BR BKN005 BKN010 OVC014 13/12 A2965 RMK SLP037 P0009 T01280122 401610117
00:17
I
13 °C 3 mi 700 ft 330° 330° 9 - 18 kt METAR KCLT 010417Z 33009G18KT 3SM RA BR BKN007 BKN014 OVC020 13/12 A2965 RMK P0004 T01280122

30 settembre 2022

Tempo Codice Tempo metereologico Temp. Vista Base nuvolosa Vento METAR/SPECI
23:52
M
13 °C 4 mi 1.500 ft 330° 330° 12 kt METAR KCLT 010352Z 33012KT 4SM RA BR SCT010 OVC015 13/12 A2965 RMK SLP037 P0003 T01280122
22:52
M
13 °C 4 mi 1.500 ft 340° 340° 12 - 23 kt METAR KCLT 010252Z 34012G23KT 4SM -RA BR FEW008 OVC015 13/12 A2964 RMK SLP034 P0003 60035 T01280117 50001
21:52
I
13 °C 3 mi 1.100 ft 350° 350° 15 - 22 kt METAR KCLT 010152Z 35015G22KT 3SM RA BR BKN011 OVC019 13/12 A2965 RMK PK WND 01034/0116 SLP036 P0022 T01280117
21:32
I
13 °C 3 mi 1.300 ft 340° 340° 16 - 26 kt METAR KCLT 010132Z 34016G26KT 3SM RA BR SCT010 BKN013 OVC020 13/12 A2965 RMK PK WND 01034/0116 P0019 T01330117
21:06
I
13 °C 2 mi 1.600 ft 350° 350° 19 - 27 kt METAR KCLT 010106Z 35019G27KT 2SM +RA BR SCT009 BKN016 OVC022 13/12 A2965 RMK PK WND 36027/0101 P0010 T01280117
20:59
I
13 °C 3 mi 1.600 ft 350° 350° 17 - 33 kt METAR KCLT 010059Z 35017G33KT 3SM +RA BR SCT009 BKN016 OVC022 13/12 A2965 RMK P0004 T01280122
20:28
M
13 °C 5 mi 1.300 ft 350° 350° 18 - 28 kt METAR KCLT 010028Z 35018G28KT 5SM +RA BR BKN013 OVC021 13/12 A2964 RMK PK WND 36035/0016 P0004 T01280117
19:52
M
13 °C 4 mi 1.500 ft 360° 360° 24 - 33 kt METAR KCLT 302352Z 36024G33KT 4SM -RA BR SCT010 BKN015 OVC023 13/12 A2964 RMK PK WND 35040/2306 SLP034 P0012 60167 T01330117 10133 20128 56022
19:32
I
13 °C 3 mi 1.500 ft 360° 360° 18 - 33 kt METAR KCLT 302332Z 36018G33KT 3SM RA BR SCT010 BKN015 OVC021 13/12 A2965 RMK PK WND 35040/2306 P0010 T01280117
19:13
I
13 °C 2½ mi 1.500 ft 360° 360° 23 - 40 kt METAR KCLT 302313Z 36023G40KT 2 1/2SM RA BR SCT010 BKN015 OVC021 13/12 A2965 RMK PK WND 35040/2306 P0007 T01280117
18:52
I
13 °C 2 mi 1.100 ft 350° 350° 17 - 30 kt METAR KCLT 302252Z 35017G30KT 2SM +RA BR BKN011 BKN015 OVC020 13/12 A2966 RMK PK WND 35038/2156 P0034 T01280117
18:33
I
13 °C 1¼ mi 1.600 ft 350° 350° 18 - 29 kt METAR KCLT 302233Z 35018G29KT 1 1/4SM +RA BR SCT010 OVC016 13/12 A2967 RMK PK WND 35038/2156 P0029 T01280117 RVRNO
18:20
I
13 °C 2 mi 2.500 ft 340° 340° 23 - 37 kt METAR KCLT 302220Z 34023G37KT 2SM RA BR SCT011 OVC025 13/12 A2966 RMK PK WND 35038/2156 P0019 T01280117
18:05
I
13 °C 1 mi 1.300 ft 350° 350° 22 - 38 kt METAR KCLT 302205Z 35022G38KT 1SM +RA BR FEW008 BKN013 OVC023 13/12 A2967 RMK PK WND 35038/2156 P0008 T01280117 RVRNO
17:36
L
13 °C ¾ mi 1.900 ft 340° 340° 25 - 40 kt METAR KCLT 302136Z 34025G40KT 3/4SM +RA BR FEW010 BKN019 OVC025 13/12 A2968 RMK PK WND 36040/2132 P0046 T01280117 RVRNO
16:52
I
13 °C 1¼ mi 1.200 ft 360° 360° 25 - 32 kt METAR KCLT 302052Z 36025G32KT 1 1/4SM +RA BR BKN012 BKN018 OVC024 13/12 A2971 RMK PK WND 01034/2028 PRESFR SLP056 P0030 60058 T01280117 56042
16:39
I
13 °C 1½ mi 1.800 ft 360° 360° 19 - 32 kt METAR KCLT 302039Z 36019G32KT 1 1/2SM +RA BR SCT012 BKN018 OVC038 13/12 A2972 RMK PK WND 01034/2028 P0023 T01280117
16:19
I
13 °C 2 mi 2.000 ft 360° 360° 21 - 31 kt METAR KCLT 302019Z 36021G31KT 2SM +RA BR SCT016 BKN020 OVC050 13/12 A2973 RMK PK WND 36033/1957 P0012 T01280117
15:52
I
13 °C 1¾ mi 1.600 ft 360° 360° 21 - 38 kt METAR KCLT 301952Z 36021G38KT 1 3/4SM +RA BR BKN016 BKN040 OVC075 13/11 A2974 RMK PK WND 01038/1947 SLP066 P0026 T01280111
15:21
I
13 °C 2 mi 1.400 ft 360° 360° 20 - 33 kt METAR KCLT 301921Z 36020G33KT 2SM +RA BR BKN014 BKN021 OVC048 13/12 A2977 RMK PK WND 02033/1915 PRESFR P0006 T01280117
14:52
M
13 °C 4 mi 1.400 ft 010° 010° 22 - 31 kt METAR KCLT 301852Z 01022G31KT 4SM RA BR BKN014 OVC020 13/11 A2979 RMK PK WND 01035/1837 SLP082 P0002 T01330111
13:52
M
13 °C 7 mi 1.400 ft 010° 010° 20 - 30 kt METAR KCLT 301752Z 01020G30KT 7SM -RA BKN014 OVC080 13/12 A2983 RMK PK WND 01034/1733 SLP098 P0007 60035 T01330117 10133 20117 58048
13:40
M
13 °C 5 mi 1.400 ft 010° 010° 20 - 34 kt METAR KCLT 301740Z 01020G34KT 5SM RA BR BKN014 OVC080 13/12 A2984 RMK PK WND 01034/1733 PRESFR P0006 T01280117
13:23
I
13 °C 2½ mi 1.400 ft 010° 010° 19 - 30 kt METAR KCLT 301723Z 01019G30KT 2 1/2SM RA BR SCT010 OVC014 13/12 A2986 RMK PK WND 01030/1714 P0004 T01280117 $
12:52
M
13 °C 10 mi 1.400 ft 010° 010° 15 - 31 kt METAR KCLT 301652Z 01015G31KT 10SM -RA OVC014 13/11 A2990 RMK PK WND 01031/1644 RAB23 SLP120 P0000 T01330111 $
11:52
M
13 °C 10 mi 1.200 ft 010° 010° 20 - 29 kt METAR KCLT 301552Z 01020G29KT 10SM BKN012 OVC023 13/11 A2993 RMK PK WND 01029/1546 RAE35 SLP132 P0000 T01280111 $
10:52
M
12 °C 9 mi 1.200 ft 010° 010° 20 - 28 kt METAR KCLT 301452Z 01020G28KT 9SM -RA BKN012 BKN022 OVC040 12/11 A2998 RMK PK WND 01028/1452 SLP147 P0007 60028 T01220106 56011 $
Dati più vecchi

Noi e le terze parti seguiamo il tuo comportamento in internet sul nostro sito web con i cookie. Se continui, riteniamo che tu sia d'accordo con la nostra politica sui cookie. Per saperne di più